createdAt,value
2017-05-12T03:00:51.837Z,1000.19
2017-05-12T03:01:17.414Z,1000.15
2017-05-12T03:01:43.125Z,1000.14
2017-05-12T03:02:08.718Z,1000.15
2017-05-12T03:02:34.263Z,1000.17
2017-05-12T03:02:59.925Z,1000.16
2017-05-12T03:03:25.441Z,1000.16
2017-05-12T03:03:50.988Z,1000.14
2017-05-12T03:04:16.536Z,1000.16
2017-05-12T03:04:42.102Z,1000.19
2017-05-12T03:05:07.653Z,1000.17
2017-05-12T03:05:33.242Z,1000.19
2017-05-12T03:05:58.793Z,1000.16
2017-05-12T03:06:24.331Z,1000.2
2017-05-12T03:06:50.004Z,1000.2
2017-05-12T03:07:15.523Z,1000.16
2017-05-12T03:07:41.074Z,1000.19
2017-05-12T03:08:06.609Z,1000.15
2017-05-12T03:08:32.166Z,1000.2
2017-05-12T03:08:57.793Z,1000.16
2017-05-12T03:09:23.371Z,1000.18
2017-05-12T03:09:48.906Z,1000.15
2017-05-12T03:10:14.440Z,1000.19
2017-05-12T03:10:39.999Z,1000.17
2017-05-12T03:11:05.563Z,1000.2
2017-05-12T03:11:31.200Z,1000.17
2017-05-12T03:11:56.751Z,1000.17
2017-05-12T03:12:22.296Z,1000.2
2017-05-12T03:12:47.851Z,1000.17
2017-05-12T03:13:13.665Z,1000.15
2017-05-12T03:13:39.224Z,1000.15
2017-05-12T03:14:04.772Z,1000.16
2017-05-12T03:15:23.613Z,1000.18
2017-05-12T03:15:49.182Z,1000.2
2017-05-12T03:16:14.753Z,1000.2
2017-05-12T03:16:40.303Z,1000.14
2017-05-12T03:17:05.989Z,1000.15
2017-05-12T03:17:31.551Z,1000.17
2017-05-12T03:17:57.124Z,1000.18
2017-05-12T03:18:22.705Z,1000.18
2017-05-12T03:18:48.281Z,1000.19
2017-05-12T03:19:13.844Z,1000.18
2017-05-12T03:19:39.415Z,1000.15
2017-05-12T03:20:04.964Z,1000.18
2017-05-12T03:20:30.514Z,1000.17
2017-05-12T03:20:56.133Z,1000.17
2017-05-12T03:21:21.688Z,1000.18
2017-05-12T03:21:47.257Z,1000.15
2017-05-12T03:22:12.855Z,1000.19
2017-05-12T03:22:38.432Z,1000.16
2017-05-12T03:23:03.990Z,1000.19
2017-05-12T03:23:29.524Z,1000.18
2017-05-12T03:23:55.059Z,1000.18
2017-05-12T03:24:20.599Z,1000.21
2017-05-12T03:24:46.192Z,1000.23
2017-05-12T03:25:11.752Z,1000.16
2017-05-12T03:25:37.304Z,1000.24
2017-05-12T03:26:02.861Z,1000.21
2017-05-12T03:26:28.413Z,1000.24
2017-05-12T03:26:54.079Z,1000.22
2017-05-12T03:27:19.638Z,1000.25
2017-05-12T03:27:45.199Z,1000.27
2017-05-12T03:28:10.766Z,1000.27
2017-05-12T03:28:36.345Z,1000.31
2017-05-12T03:29:01.915Z,1000.27
2017-05-12T03:29:27.545Z,1000.29
2017-05-12T03:29:53.247Z,1000.29
2017-05-12T03:30:18.815Z,1000.32
2017-05-12T03:30:44.357Z,1000.31
2017-05-12T03:31:09.923Z,1000.33
2017-05-12T03:31:35.492Z,1000.32
2017-05-12T03:32:01.060Z,1000.32
2017-05-12T03:32:26.611Z,1000.27
2017-05-12T03:32:52.196Z,1000.34
2017-05-12T03:33:17.759Z,1000.31
2017-05-12T03:33:43.347Z,1000.29
2017-05-12T03:34:08.909Z,1000.31
2017-05-12T03:34:34.465Z,1000.3
2017-05-12T03:34:59.993Z,1000.33
2017-05-12T03:35:25.542Z,1000.34
2017-05-12T03:35:51.212Z,1000.35
2017-05-12T03:36:16.789Z,1000.33
2017-05-12T03:36:42.352Z,1000.3
2017-05-12T03:37:07.904Z,1000.32
2017-05-12T03:37:33.467Z,1000.33
2017-05-12T03:37:59.024Z,1000.34
2017-05-12T03:38:24.573Z,1000.35
2017-05-12T03:38:50.134Z,1000.33
2017-05-12T03:39:15.710Z,1000.39
2017-05-12T03:39:41.322Z,1000.32
2017-05-12T03:40:06.882Z,1000.34
2017-05-12T03:40:32.523Z,1000.35
2017-05-12T03:40:58.350Z,1000.35
2017-05-12T03:41:24.051Z,1000.35
2017-05-12T03:41:49.600Z,1000.33
2017-05-12T03:42:15.162Z,1000.35
2017-05-12T03:42:40.830Z,1000.38
2017-05-12T03:43:06.423Z,1000.36
2017-05-12T03:43:32.017Z,1000.31
2017-05-12T03:43:57.563Z,1000.35
2017-05-12T03:44:23.129Z,1000.35
2017-05-12T03:44:48.689Z,1000.4
2017-05-12T03:45:14.246Z,1000.37
2017-05-12T03:45:39.802Z,1000.4
2017-05-12T03:46:05.362Z,1000.43
2017-05-12T03:46:31.058Z,1000.38
2017-05-12T03:46:56.609Z,1000.4
2017-05-12T03:47:22.173Z,1000.4
2017-05-12T03:47:47.727Z,1000.38
2017-05-12T03:48:13.294Z,1000.4
2017-05-12T03:48:38.821Z,1000.37
2017-05-12T03:49:04.365Z,1000.39
2017-05-12T03:49:29.933Z,1000.37
2017-05-12T03:49:55.507Z,1000.35
2017-05-12T03:50:21.182Z,1000.33
2017-05-12T03:50:46.768Z,1000.34
2017-05-12T03:51:12.341Z,1000.3
2017-05-12T03:51:37.929Z,1000.34
2017-05-12T03:52:03.484Z,1000.31
2017-05-12T03:52:29.036Z,1000.33
2017-05-12T03:52:54.594Z,1000.36
2017-05-12T03:53:20.150Z,1000.39
2017-05-12T03:53:45.724Z,1000.38
2017-05-12T03:54:11.334Z,1000.36
2017-05-12T03:54:36.917Z,1000.39
2017-05-12T03:55:02.464Z,1000.4
2017-05-12T03:55:28.163Z,1000.39
2017-05-12T03:55:53.728Z,1000.37
2017-05-12T03:56:19.291Z,1000.36
2017-05-12T03:56:44.844Z,1000.38
2017-05-12T03:57:10.552Z,1000.43
2017-05-12T03:57:36.133Z,1000.48
2017-05-12T03:58:01.802Z,1000.39
2017-05-12T03:58:27.354Z,1000.42
2017-05-12T03:58:52.913Z,1000.41
2017-05-12T03:59:18.491Z,1000.41
2017-05-12T03:59:44.103Z,1000.44
2017-05-12T04:00:09.657Z,1000.43
2017-05-12T04:00:35.198Z,1000.41
2017-05-12T04:01:00.741Z,1000.44
2017-05-12T04:01:26.285Z,1000.46
2017-05-12T04:01:51.854Z,1000.44
2017-05-12T04:02:17.425Z,1000.45
2017-05-12T04:02:42.987Z,1000.47
2017-05-12T04:03:08.561Z,1000.43
2017-05-12T04:03:34.112Z,1000.47
2017-05-12T04:03:59.684Z,1000.49
2017-05-12T04:04:25.353Z,1000.49
2017-05-12T04:04:50.922Z,1000.48
2017-05-12T04:05:16.489Z,1000.48
2017-05-12T04:05:42.073Z,1000.46
2017-05-12T04:06:07.651Z,1000.49
2017-05-12T04:06:33.224Z,1000.51
2017-05-12T04:06:58.886Z,1000.51
2017-05-12T04:07:24.505Z,1000.5
2017-05-12T04:07:50.021Z,1000.54
2017-05-12T04:08:15.583Z,1000.53
2017-05-12T04:08:41.191Z,1000.52
2017-05-12T04:09:06.777Z,1000.5
2017-05-12T04:09:32.345Z,1000.57
2017-05-12T04:09:58.877Z,1000.52
2017-05-12T04:10:24.522Z,1000.54
2017-05-12T04:10:50.802Z,1000.53
2017-05-12T04:11:15.639Z,1000.51
2017-05-12T04:11:41.251Z,1000.5
2017-05-12T04:12:06.801Z,1000.52
2017-05-12T04:12:32.345Z,1000.58
2017-05-12T04:12:57.912Z,1000.58
2017-05-12T04:13:23.458Z,1000.58
2017-05-12T04:13:49.002Z,1000.59
2017-05-12T04:14:14.539Z,1000.54
2017-05-12T04:14:40.102Z,1000.54
2017-05-12T04:15:05.652Z,1000.56
2017-05-12T04:15:31.213Z,1000.55
2017-05-12T04:15:56.760Z,1000.57
2017-05-12T04:16:22.401Z,1000.58
2017-05-12T04:16:47.942Z,1000.55
2017-05-12T04:17:13.489Z,1000.61
2017-05-12T04:17:39.170Z,1000.59
2017-05-12T04:18:04.742Z,1000.62
2017-05-12T04:18:30.301Z,1000.6
2017-05-12T04:18:55.852Z,1000.6
2017-05-12T04:19:21.395Z,1000.63
2017-05-12T04:19:46.933Z,1000.6
2017-05-12T04:20:12.582Z,1000.63
2017-05-12T04:20:38.142Z,1000.64
2017-05-12T04:21:03.804Z,1000.62
2017-05-12T04:21:29.344Z,1000.61
2017-05-12T04:21:54.901Z,1000.62
2017-05-12T04:22:20.456Z,1000.58
2017-05-12T04:22:46.023Z,1000.61
2017-05-12T04:23:11.577Z,1000.63
2017-05-12T04:23:37.127Z,1000.63
2017-05-12T04:24:02.697Z,1000.61
2017-05-12T04:24:28.253Z,1000.64
2017-05-12T04:24:53.957Z,1000.64
2017-05-12T04:25:19.551Z,1000.67
2017-05-12T04:25:45.112Z,1000.67
2017-05-12T04:26:10.680Z,1000.66
2017-05-12T04:26:36.249Z,1000.68
2017-05-12T04:27:01.798Z,1000.68
2017-05-12T04:27:27.364Z,1000.71
2017-05-12T04:27:52.929Z,1000.68
2017-05-12T04:28:18.490Z,1000.67
2017-05-12T04:28:44.156Z,1000.71
2017-05-12T04:29:09.701Z,1000.73
2017-05-12T04:29:35.288Z,1000.69
2017-05-12T04:30:00.866Z,1000.7
2017-05-12T04:30:26.420Z,1000.69
2017-05-12T04:30:51.992Z,1000.65
2017-05-12T04:31:17.529Z,1000.64
2017-05-12T04:31:43.076Z,1000.64
2017-05-12T04:32:08.704Z,1000.64
2017-05-12T04:32:34.325Z,1000.65
2017-05-12T04:32:59.902Z,1000.68
2017-05-12T04:33:25.475Z,1000.66
2017-05-12T04:33:51.114Z,1000.69
2017-05-12T04:34:16.677Z,1000.7
2017-05-12T04:34:42.234Z,1000.67
2017-05-12T04:35:07.802Z,1000.65
2017-05-12T04:35:33.476Z,1000.63
2017-05-12T04:35:59.027Z,1000.64
2017-05-12T04:36:24.604Z,1000.66
2017-05-12T04:36:50.168Z,1000.66
2017-05-12T04:37:15.772Z,1000.72
2017-05-12T04:37:41.332Z,1000.74
2017-05-12T04:38:06.889Z,1000.73
2017-05-12T04:38:32.541Z,1000.73
2017-05-12T04:38:58.122Z,1000.78
2017-05-12T04:39:23.700Z,1000.74
2017-05-12T04:39:49.262Z,1000.7
2017-05-12T04:40:15.000Z,1000.71
2017-05-12T04:40:40.540Z,1000.75
2017-05-12T04:41:06.086Z,1000.77
2017-05-12T04:41:31.631Z,1000.79
2017-05-12T04:41:57.294Z,1000.8
2017-05-12T04:42:22.858Z,1000.81
2017-05-12T04:42:48.397Z,1000.82
2017-05-12T04:43:13.950Z,1000.82
2017-05-12T04:43:39.507Z,1000.81
2017-05-12T04:44:05.056Z,1000.86
2017-05-12T04:44:30.623Z,1000.84
2017-05-12T04:44:56.190Z,1000.87
2017-05-12T04:45:21.900Z,1000.85
2017-05-12T04:45:48.319Z,1000.81
2017-05-12T04:46:13.030Z,1000.85
2017-05-12T04:46:38.580Z,1000.85
2017-05-12T04:47:04.150Z,1000.85
2017-05-12T04:47:29.702Z,1000.82
2017-05-12T04:47:55.251Z,1000.84
2017-05-12T04:48:20.848Z,1000.84
2017-05-12T04:48:46.416Z,1000.84
2017-05-12T04:49:12.034Z,1000.86
2017-05-12T04:49:37.600Z,1000.87
2017-05-12T04:50:03.181Z,1000.89
2017-05-12T04:50:28.774Z,1000.9
2017-05-12T04:50:54.434Z,1000.9
2017-05-12T04:51:20.000Z,1000.93
2017-05-12T04:51:45.550Z,1000.91
2017-05-12T04:52:11.269Z,1000.92
2017-05-12T04:52:36.815Z,1000.91
2017-05-12T04:53:02.427Z,1000.89
2017-05-12T04:53:28.003Z,1000.95
2017-05-12T04:53:53.641Z,1000.91
2017-05-12T04:54:19.203Z,1000.96
2017-05-12T04:54:44.810Z,1000.96
2017-05-12T04:55:10.440Z,1000.98
2017-05-12T04:55:36.001Z,1001.01
2017-05-12T04:56:01.563Z,1000.99
2017-05-12T04:56:27.162Z,1001.01
2017-05-12T04:56:52.834Z,1001.03
2017-05-12T04:57:18.394Z,1001
2017-05-12T04:57:43.951Z,1001.01
2017-05-12T04:58:09.624Z,1001.08
2017-05-12T04:58:35.177Z,1001.04
2017-05-12T04:59:00.771Z,1001.05
2017-05-12T04:59:26.472Z,1001.03
2017-05-12T04:59:52.043Z,1000.99
2017-05-12T05:00:17.574Z,1000.98
2017-05-12T05:00:43.234Z,1001.02
2017-05-12T05:01:08.808Z,1001
2017-05-12T05:01:34.371Z,1001
2017-05-12T05:01:59.945Z,1000.99
2017-05-12T05:02:25.552Z,1001.01
2017-05-12T05:03:44.411Z,1000.99
2017-05-12T05:04:09.990Z,1000.99
2017-05-12T05:04:35.537Z,1001.02
2017-05-12T05:05:01.081Z,1001.02
2017-05-12T05:05:26.622Z,1001.01
2017-05-12T05:05:52.205Z,1001.04
2017-05-12T05:06:17.811Z,1001.04
2017-05-12T05:06:43.369Z,1001.01
2017-05-12T05:07:09.058Z,1001.03
2017-05-12T05:07:34.588Z,1001.03
2017-05-12T05:08:00.161Z,1001.05
2017-05-12T05:08:25.731Z,1001.03
2017-05-12T05:08:51.308Z,1001.01
2017-05-12T05:09:16.861Z,1001
2017-05-12T05:09:42.430Z,1001.06
2017-05-12T05:10:08.003Z,1001.06
2017-05-12T05:10:33.567Z,1001
2017-05-12T05:10:59.122Z,1001.02
2017-05-12T05:11:24.814Z,1001.03
2017-05-12T05:11:50.346Z,1001.02
2017-05-12T05:12:16.036Z,1001.01
2017-05-12T05:12:41.575Z,1001.06
2017-05-12T05:13:07.131Z,1001.01
2017-05-12T05:13:32.696Z,1000.98
2017-05-12T05:13:58.284Z,1001.01
2017-05-12T05:14:24.552Z,1001.03
2017-05-12T05:14:49.430Z,1001.07
2017-05-12T05:15:15.001Z,1001
2017-05-12T05:15:40.563Z,1001.06
2017-05-12T05:16:06.176Z,1001.01
2017-05-12T05:16:31.774Z,1000.97
2017-05-12T05:16:57.326Z,1001.03
2017-05-12T05:17:22.967Z,1001.06
2017-05-12T05:17:48.526Z,1001.05
2017-05-12T05:18:14.110Z,1001.05
2017-05-12T05:18:39.659Z,1001.03
2017-05-12T05:19:05.242Z,1001.04
2017-05-12T05:19:30.792Z,1001.08
2017-05-12T05:19:56.351Z,1001.03
2017-05-12T05:20:21.922Z,1001.05
2017-05-12T05:20:47.484Z,1001.08
2017-05-12T05:21:13.135Z,1001.08
2017-05-12T05:21:38.697Z,1001.07
2017-05-12T05:22:04.261Z,1001.09
2017-05-12T05:22:29.817Z,1001.12
2017-05-12T05:22:55.534Z,1001.14
2017-05-12T05:23:21.103Z,1001.14
2017-05-12T05:23:46.647Z,1001.16
2017-05-12T05:24:12.192Z,1001.15
2017-05-12T05:24:37.861Z,1001.15
2017-05-12T05:25:03.437Z,1001.14
2017-05-12T05:25:29.004Z,1001.13
2017-05-12T05:25:54.585Z,1001.14
2017-05-12T05:26:20.166Z,1001.13
2017-05-12T05:26:45.716Z,1001.13
2017-05-12T05:27:11.261Z,1001.13
2017-05-12T05:27:37.336Z,1001.16
2017-05-12T05:28:02.891Z,1001.17
2017-05-12T05:28:28.453Z,1001.15
2017-05-12T05:28:54.162Z,1001.14
2017-05-12T05:29:19.732Z,1001.17
2017-05-12T05:29:45.293Z,1001.2
2017-05-12T05:30:10.881Z,1001.16
2017-05-12T05:30:36.586Z,1001.17
2017-05-12T05:31:02.147Z,1001.17
2017-05-12T05:31:27.761Z,1001.14
2017-05-12T05:31:53.377Z,1001.2
2017-05-12T05:32:18.935Z,1001.22
2017-05-12T05:32:44.477Z,1001.19
2017-05-12T05:33:10.055Z,1001.2
2017-05-12T05:33:35.640Z,1001.23
2017-05-12T05:34:01.233Z,1001.25
2017-05-12T05:34:26.835Z,1001.27
2017-05-12T05:34:52.406Z,1001.23
2017-05-12T05:35:18.558Z,1001.3
2017-05-12T05:35:43.538Z,1001.27
2017-05-12T05:36:09.104Z,1001.26
2017-05-12T05:36:34.667Z,1001.3
2017-05-12T05:37:00.243Z,1001.3
2017-05-12T05:37:25.793Z,1001.36
2017-05-12T05:37:51.382Z,1001.34
2017-05-12T05:38:16.935Z,1001.38
2017-05-12T05:38:42.511Z,1001.36
2017-05-12T05:39:08.091Z,1001.36
2017-05-12T05:39:33.706Z,1001.35
2017-05-12T05:39:59.350Z,1001.41
2017-05-12T05:40:24.931Z,1001.41
2017-05-12T05:40:50.573Z,1001.36
2017-05-12T05:41:16.111Z,1001.35
2017-05-12T05:41:41.683Z,1001.34
2017-05-12T05:42:07.348Z,1001.34
2017-05-12T05:42:32.934Z,1001.36
2017-05-12T05:42:58.513Z,1001.32
2017-05-12T05:43:24.071Z,1001.38
2017-05-12T05:43:49.684Z,1001.39
2017-05-12T05:44:15.243Z,1001.36
2017-05-12T05:44:40.797Z,1001.35
2017-05-12T05:45:06.361Z,1001.38
2017-05-12T05:45:31.924Z,1001.39
2017-05-12T05:45:57.578Z,1001.34
2017-05-12T05:46:23.143Z,1001.4
2017-05-12T05:46:48.696Z,1001.39
2017-05-12T05:47:14.368Z,1001.39
2017-05-12T05:47:39.929Z,1001.41
2017-05-12T05:48:05.492Z,1001.42
2017-05-12T05:48:31.165Z,1001.41
2017-05-12T05:48:56.733Z,1001.41
2017-05-12T05:49:22.300Z,1001.41
2017-05-12T05:49:47.861Z,1001.4
2017-05-12T05:50:13.599Z,1001.43
2017-05-12T05:50:39.161Z,1001.43
2017-05-12T05:51:04.717Z,1001.48
2017-05-12T05:51:30.388Z,1001.48
2017-05-12T05:51:55.954Z,1001.47
2017-05-12T05:52:22.112Z,1001.48
2017-05-12T05:52:47.714Z,1001.53
2017-05-12T05:53:13.289Z,1001.54
2017-05-12T05:53:38.858Z,1001.52
2017-05-12T05:54:04.417Z,1001.57
2017-05-12T05:54:29.982Z,1001.62
2017-05-12T05:54:55.550Z,1001.57
2017-05-12T05:55:21.135Z,1001.59
2017-05-12T05:55:46.691Z,1001.66
2017-05-12T05:56:12.261Z,1001.66
2017-05-12T05:56:38.636Z,1001.72
2017-05-12T05:57:04.118Z,1001.71
2017-05-12T05:57:29.652Z,1001.7
2017-05-12T05:57:55.288Z,1001.68
2017-05-12T05:58:20.921Z,1001.7
2017-05-12T05:58:46.482Z,1001.7
2017-05-12T05:59:12.021Z,1001.71
2017-05-12T05:59:37.591Z,1001.73
2017-05-12T06:00:03.168Z,1001.7
2017-05-12T06:00:28.723Z,1001.71
2017-05-12T06:01:27.174Z,1001.74
2017-05-12T06:01:52.750Z,1001.67
2017-05-12T06:02:18.300Z,1001.67
2017-05-12T06:02:43.836Z,1001.69
2017-05-12T06:03:09.435Z,1001.68
2017-05-12T06:03:34.992Z,1001.64
2017-05-12T06:04:00.562Z,1001.61
2017-05-12T06:04:26.199Z,1001.68
2017-05-12T06:04:51.760Z,1001.62
2017-05-12T06:05:17.304Z,1001.67
2017-05-12T06:05:42.984Z,1001.64
2017-05-12T06:06:08.594Z,1001.64
2017-05-12T06:06:34.152Z,1001.7
2017-05-12T06:06:59.719Z,1001.68
2017-05-12T06:07:25.298Z,1001.74
2017-05-12T06:07:50.859Z,1001.76
2017-05-12T06:08:16.419Z,1001.75
2017-05-12T06:08:41.971Z,1001.74
2017-05-12T06:09:07.533Z,1001.76
2017-05-12T06:09:33.091Z,1001.78
2017-05-12T06:09:58.673Z,1001.77
2017-05-12T06:10:24.236Z,1001.78
2017-05-12T06:10:49.800Z,1001.73
2017-05-12T06:11:15.412Z,1001.74
2017-05-12T06:11:40.999Z,1001.74
2017-05-12T06:12:06.575Z,1001.74
2017-05-12T06:12:32.123Z,1001.75
2017-05-12T06:12:57.718Z,1001.77
2017-05-12T06:13:23.232Z,1001.77
2017-05-12T06:13:48.811Z,1001.78
2017-05-12T06:14:14.356Z,1001.78
2017-05-12T06:14:39.902Z,1001.75
2017-05-12T06:15:05.462Z,1001.76
2017-05-12T06:15:31.160Z,1001.77
2017-05-12T06:15:56.751Z,1001.8
2017-05-12T06:16:22.320Z,1001.82
2017-05-12T06:16:47.872Z,1001.8
2017-05-12T06:17:13.432Z,1001.81
2017-05-12T06:17:38.985Z,1001.83
2017-05-12T06:18:04.535Z,1001.83
2017-05-12T06:18:30.097Z,1001.8
2017-05-12T06:18:55.653Z,1001.84
2017-05-12T06:19:21.210Z,1001.84
2017-05-12T06:19:46.788Z,1001.88
2017-05-12T06:20:12.356Z,1001.88
2017-05-12T06:20:37.912Z,1001.91
2017-05-12T06:21:03.476Z,1001.9
2017-05-12T06:21:29.085Z,1001.89
2017-05-12T06:21:54.645Z,1001.89
2017-05-12T06:22:20.189Z,1001.86
2017-05-12T06:22:45.801Z,1001.87
2017-05-12T06:23:11.359Z,1001.84
2017-05-12T06:23:36.902Z,1001.86
2017-05-12T06:24:02.460Z,1001.88
2017-05-12T06:24:28.010Z,1001.87
2017-05-12T06:24:53.562Z,1001.9
2017-05-12T06:25:19.130Z,1001.89
2017-05-12T06:25:44.690Z,1001.91
2017-05-12T06:26:10.231Z,1001.94
2017-05-12T06:26:35.782Z,1001.93
2017-05-12T06:27:01.354Z,1001.93
2017-05-12T06:27:26.954Z,1001.94
2017-05-12T06:27:52.527Z,1001.94
2017-05-12T06:28:18.164Z,1001.95
2017-05-12T06:28:43.716Z,1001.94
2017-05-12T06:29:09.282Z,1001.98
2017-05-12T06:29:34.856Z,1001.92
2017-05-12T06:30:00.428Z,1001.95
2017-05-12T06:30:25.996Z,1001.94
2017-05-12T06:30:51.555Z,1001.92
2017-05-12T06:31:17.996Z,1001.96
2017-05-12T06:31:43.564Z,1001.93
2017-05-12T06:32:09.122Z,1001.93
2017-05-12T06:32:34.668Z,1001.99
2017-05-12T06:33:00.233Z,1001.93
2017-05-12T06:33:25.800Z,1001.93
2017-05-12T06:33:51.364Z,1001.95
2017-05-12T06:34:16.954Z,1001.95
2017-05-12T06:34:42.520Z,1001.96
2017-05-12T06:35:08.154Z,1002
2017-05-12T06:35:33.736Z,1001.97
2017-05-12T06:35:59.291Z,1001.97
2017-05-12T06:36:24.846Z,1001.95
2017-05-12T06:36:50.524Z,1001.98
2017-05-12T06:37:16.084Z,1002.01
2017-05-12T06:37:41.662Z,1002.01
2017-05-12T06:38:07.324Z,1001.98
2017-05-12T06:38:32.892Z,1001.96
2017-05-12T06:38:58.448Z,1001.97
2017-05-12T06:39:24.043Z,1002.02
2017-05-12T06:39:49.681Z,1002
2017-05-12T06:40:15.254Z,1002
2017-05-12T06:40:40.802Z,1001.97
2017-05-12T06:41:06.389Z,1002.01
2017-05-12T06:42:15.144Z,1001.99
2017-05-12T06:42:40.694Z,1002.03
2017-05-12T06:43:06.274Z,1002.02
2017-05-12T06:43:31.848Z,1002.01
2017-05-12T06:43:57.429Z,1002.02
2017-05-12T06:44:22.999Z,1001.97
2017-05-12T06:44:48.587Z,1002.02
2017-05-12T06:45:14.169Z,1002.04
2017-05-12T06:45:39.729Z,1002.08
2017-05-12T06:46:05.289Z,1002.05
2017-05-12T06:46:30.830Z,1002.03
2017-05-12T06:46:56.383Z,1002.06
2017-05-12T06:47:21.936Z,1002.11
2017-05-12T06:47:47.500Z,1002.07
2017-05-12T06:48:13.063Z,1002.1
2017-05-12T06:48:38.612Z,1002.09
2017-05-12T06:49:04.166Z,1002.11
2017-05-12T06:49:29.711Z,1002.11
2017-05-12T06:49:55.361Z,1002.12
2017-05-12T06:50:20.917Z,1002.12
2017-05-12T06:50:46.472Z,1002.11
2017-05-12T06:51:12.120Z,1002.11
2017-05-12T06:51:37.800Z,1002.1
2017-05-12T06:52:03.351Z,1002.1
2017-05-12T06:52:28.896Z,1002.11
2017-05-12T06:52:54.503Z,1002.16
2017-05-12T06:53:20.095Z,1002.13
2017-05-12T06:53:45.626Z,1002.13
2017-05-12T06:54:11.171Z,1002.13
2017-05-12T06:54:36.749Z,1002.13
2017-05-12T06:55:40.260Z,1002.09
2017-05-12T06:56:05.827Z,1002.14
2017-05-12T06:56:31.384Z,1002.08
2017-05-12T06:56:56.956Z,1002.1
2017-05-12T06:57:22.514Z,1002.12
2017-05-12T06:57:48.076Z,1002.07
2017-05-12T06:58:13.703Z,1002.11
2017-05-12T06:58:39.259Z,1002.11
2017-05-12T06:59:04.821Z,1002.16
2017-05-12T06:59:30.455Z,1002.15
2017-05-12T06:59:56.022Z,1002.14
2017-05-12T07:00:21.593Z,1002.14
2017-05-12T07:00:47.155Z,1002.13
2017-05-12T07:01:12.711Z,1002.16
2017-05-12T07:01:38.354Z,1002.19
2017-05-12T07:02:03.938Z,1002.22
2017-05-12T07:02:29.491Z,1002.19
2017-05-12T07:02:55.086Z,1002.18
2017-05-12T07:03:20.743Z,1002.17
2017-05-12T07:03:46.303Z,1002.15
2017-05-12T07:04:11.861Z,1002.2
2017-05-12T07:04:37.541Z,1002.21
2017-05-12T07:05:03.120Z,1002.21
2017-05-12T07:05:28.684Z,1002.2
2017-05-12T07:05:54.268Z,1002.22
2017-05-12T07:06:19.840Z,1002.2
2017-05-12T07:06:45.412Z,1002.25
2017-05-12T07:07:10.982Z,1002.27
2017-05-12T07:07:36.549Z,1002.24
2017-05-12T07:08:02.116Z,1002.24
2017-05-12T07:08:27.719Z,1002.24
2017-05-12T07:08:53.282Z,1002.27
2017-05-12T07:09:18.895Z,1002.28
2017-05-12T07:09:44.477Z,1002.24
2017-05-12T07:10:10.050Z,1002.24
2017-05-12T07:10:35.601Z,1002.28
2017-05-12T07:11:01.266Z,1002.27
2017-05-12T07:11:26.823Z,1002.29
2017-05-12T07:11:52.462Z,1002.26
2017-05-12T07:12:18.017Z,1002.27
2017-05-12T07:12:43.677Z,1002.26
2017-05-12T07:13:09.259Z,1002.32
2017-05-12T07:13:34.835Z,1002.31
2017-05-12T07:14:00.395Z,1002.31
2017-05-12T07:14:26.000Z,1002.3
2017-05-12T07:14:51.554Z,1002.29
2017-05-12T07:15:17.122Z,1002.29
2017-05-12T07:15:42.691Z,1002.31
2017-05-12T07:16:08.304Z,1002.29
2017-05-12T07:16:33.857Z,1002.32
2017-05-12T07:16:59.440Z,1002.31
2017-05-12T07:17:25.045Z,1002.29
2017-05-12T07:17:50.711Z,1002.28
2017-05-12T07:18:16.278Z,1002.31
2017-05-12T07:18:41.855Z,1002.33
2017-05-12T07:19:07.503Z,1002.29
2017-05-12T07:19:33.066Z,1002.27
2017-05-12T07:19:58.640Z,1002.28
2017-05-12T07:20:24.270Z,1002.29
2017-05-12T07:20:49.834Z,1002.3
2017-05-12T07:21:15.392Z,1002.3
2017-05-12T07:21:40.951Z,1002.29
2017-05-12T07:22:06.533Z,1002.3
2017-05-12T07:22:32.118Z,1002.31
2017-05-12T07:22:57.693Z,1002.33
2017-05-12T07:23:23.249Z,1002.28
2017-05-12T07:23:48.868Z,1002.27
2017-05-12T07:24:14.443Z,1002.29
2017-05-12T07:24:39.991Z,1002.32
2017-05-12T07:25:05.551Z,1002.37
2017-05-12T07:25:31.113Z,1002.29
2017-05-12T07:25:56.655Z,1002.33
2017-05-12T07:26:22.260Z,1002.32
2017-05-12T07:26:47.888Z,1002.34
2017-05-12T07:27:13.444Z,1002.31
2017-05-12T07:27:39.069Z,1002.32
2017-05-12T07:28:04.644Z,1002.31
2017-05-12T07:28:30.235Z,1002.34
2017-05-12T07:28:55.755Z,1002.36
2017-05-12T07:29:21.443Z,1002.33
2017-05-12T07:29:46.986Z,1002.33
2017-05-12T07:30:12.558Z,1002.33
2017-05-12T07:30:38.233Z,1002.34
2017-05-12T07:31:03.791Z,1002.32
2017-05-12T07:31:29.353Z,1002.34
2017-05-12T07:31:54.960Z,1002.33
2017-05-12T07:32:20.543Z,1002.34
2017-05-12T07:32:46.144Z,1002.31
2017-05-12T07:33:11.758Z,1002.32
2017-05-12T07:33:37.454Z,1002.33
2017-05-12T07:34:03.005Z,1002.34
2017-05-12T07:34:28.569Z,1002.33
2017-05-12T07:34:54.224Z,1002.34
2017-05-12T07:35:19.900Z,1002.33
2017-05-12T07:35:45.470Z,1002.32
2017-05-12T07:36:11.076Z,1002.37
2017-05-12T07:36:36.710Z,1002.3
2017-05-12T07:37:02.290Z,1002.35
2017-05-12T07:37:27.857Z,1002.31
2017-05-12T07:37:53.429Z,1002.33
2017-05-12T07:38:18.985Z,1002.35
2017-05-12T07:38:44.567Z,1002.32
2017-05-12T07:39:10.155Z,1002.35
2017-05-12T07:39:35.708Z,1002.36
2017-05-12T07:40:01.289Z,1002.39
2017-05-12T07:40:26.885Z,1002.35
2017-05-12T07:40:52.462Z,1002.36
2017-05-12T07:41:18.025Z,1002.39
2017-05-12T07:41:43.621Z,1002.41
2017-05-12T07:42:09.166Z,1002.41
2017-05-12T07:42:34.717Z,1002.41
2017-05-12T07:43:00.281Z,1002.41
2017-05-12T07:43:25.855Z,1002.43
2017-05-12T07:43:51.414Z,1002.44
2017-05-12T07:44:17.009Z,1002.44
2017-05-12T07:44:42.556Z,1002.45
2017-05-12T07:45:08.114Z,1002.45
2017-05-12T07:45:33.693Z,1002.44
2017-05-12T07:45:59.260Z,1002.47
2017-05-12T07:46:24.831Z,1002.44
2017-05-12T07:46:50.391Z,1002.48
2017-05-12T07:47:15.954Z,1002.45
2017-05-12T07:47:41.592Z,1002.47
2017-05-12T07:48:07.176Z,1002.51
2017-05-12T07:48:32.806Z,1002.49
2017-05-12T07:48:58.409Z,1002.5
2017-05-12T07:49:23.981Z,1002.51
2017-05-12T07:49:49.543Z,1002.53
2017-05-12T07:50:15.108Z,1002.5
2017-05-12T07:50:40.682Z,1002.49
2017-05-12T07:51:06.259Z,1002.5
2017-05-12T07:51:31.832Z,1002.52
2017-05-12T07:51:57.392Z,1002.5
2017-05-12T07:52:22.971Z,1002.53
2017-05-12T07:52:48.555Z,1002.57
2017-05-12T07:53:14.178Z,1002.55
2017-05-12T07:53:39.764Z,1002.56
2017-05-12T07:54:05.395Z,1002.57
2017-05-12T07:54:30.960Z,1002.56
2017-05-12T07:54:56.524Z,1002.57
2017-05-12T07:55:22.086Z,1002.6
2017-05-12T07:55:47.654Z,1002.56
2017-05-12T07:56:13.319Z,1002.57
2017-05-12T07:56:38.873Z,1002.6
2017-05-12T07:57:04.620Z,1002.61
2017-05-12T07:57:30.183Z,1002.6
2017-05-12T07:57:55.746Z,1002.6
2017-05-12T07:58:21.391Z,1002.57
2017-05-12T07:58:46.964Z,1002.58
2017-05-12T07:59:12.522Z,1002.57
2017-05-12T07:59:38.082Z,1002.56
2017-05-12T08:00:03.682Z,1002.63
2017-05-12T08:00:29.218Z,1002.61
2017-05-12T08:00:54.798Z,1002.6
2017-05-12T08:01:20.358Z,1002.57
2017-05-12T08:01:45.928Z,1002.6
2017-05-12T08:02:11.538Z,1002.58
2017-05-12T08:02:37.072Z,1002.64
2017-05-12T08:03:02.648Z,1002.58
2017-05-12T08:03:28.234Z,1002.62
2017-05-12T08:03:53.908Z,1002.62
2017-05-12T08:04:19.466Z,1002.68
2017-05-12T08:04:45.030Z,1002.65
2017-05-12T08:05:10.771Z,1002.66
2017-05-12T08:05:36.340Z,1002.65
2017-05-12T08:06:01.912Z,1002.63
2017-05-12T08:06:27.477Z,1002.67
2017-05-12T08:06:53.023Z,1002.66
2017-05-12T08:07:18.575Z,1002.67
2017-05-12T08:07:44.127Z,1002.71
2017-05-12T08:08:09.690Z,1002.67
2017-05-12T08:08:35.254Z,1002.66
2017-05-12T08:09:00.845Z,1002.69
2017-05-12T08:09:26.394Z,1002.65
2017-05-12T08:09:51.958Z,1002.69
2017-05-12T08:10:17.540Z,1002.67
2017-05-12T08:10:43.100Z,1002.69
2017-05-12T08:11:08.665Z,1002.7
2017-05-12T08:11:34.250Z,1002.73
2017-05-12T08:11:59.821Z,1002.73
2017-05-12T08:12:25.397Z,1002.69
2017-05-12T08:12:50.967Z,1002.71
2017-05-12T08:13:16.511Z,1002.7
2017-05-12T08:13:42.094Z,1002.69
2017-05-12T08:14:07.673Z,1002.71
2017-05-12T08:14:33.245Z,1002.71
2017-05-12T08:14:58.876Z,1002.71